Home   Weather   Spain   Jaén   Past weeks
Flag for Spain

Past Weather in Jaén, Jaén, Spain — Yesterday and Last 2 Weeks

Currently: 36 °F. Clear. (Weather station: Granada / Aeropuerto, Spain). See more current weather

Past Weather in Jaén — Graph

°F

Jaén Temperature Yesterday

Maximum temperature yesterday: 54 °F (at 2:00 pm)
Minimum temperature yesterday: 41 °F (at 5:30 am)
Average temperature yesterday: 46 °F

High & Low Weather Summary for the Past Weeks

 TemperatureHumidityPressure
High75 °F (Feb 14, 4:00 pm)100% (Feb 13, 2:00 am)30.60 "Hg (Feb 13, 2:00 am)
Low36 °F (Feb 18, 8:00 am)24% (Feb 17, 5:00 pm)29.77 "Hg (Feb 26, 2:30 pm)
Average52 °F77%30.20 "Hg
* Reported Feb 13 2:00 am — Feb 28 1:00 am, Jaén. Weather by CustomWeather, © 2024

Note: Actual official high and low records may vary slightly from our data, if they occured in-between our weather recording intervals... More about our weather records

Jaén Weather History for the Previous 24 Hours

Scroll right to see more
 ConditionsComfort  
Time TempWeatherWind HumidityBarometerVisibility
1:00 am
Wed, Feb 28
36 °FClear.1 mph93%30.12 "Hg10 mi
12:30 am37 °FClear.1 mph87%30.12 "Hg10 mi
12:00 am43 °FPassing clouds.5 mph71%30.12 "HgN/A
11:30 pm
Tue, Feb 27
43 °FClear.1 mph71%30.12 "Hg10 mi
11:00 pm45 °FPassing clouds.6 mph66%30.12 "HgN/A
10:30 pm45 °FPassing clouds.6 mph66%30.12 "HgN/A
10:00 pm41 °FPassing clouds.5 mph81%30.12 "HgN/A
9:30 pm41 °FPassing clouds.3 mph81%30.12 "HgN/A
9:00 pm41 °FPassing clouds.1 mph81%30.12 "HgN/A
8:30 pm41 °FPassing clouds.1 mph81%30.12 "HgN/A
8:00 pm45 °FPassing clouds.No wind71%30.12 "HgN/A
7:30 pm46 °FPassing clouds.3 mph71%30.12 "HgN/A
7:00 pm48 °FScattered clouds.2 mph62%30.09 "HgN/A
6:30 pm50 °FPartly sunny.6 mph58%30.09 "HgN/A
6:00 pm52 °FPartly sunny.8 mph50%30.09 "HgN/A
5:30 pm52 °FPartly sunny.8 mph50%30.07 "HgN/A
5:00 pm52 °FPartly sunny.8 mph50%30.07 "HgN/A
4:30 pm52 °FPartly sunny.8 mph50%30.07 "HgN/A
4:00 pm50 °FPartly sunny.6 mph54%30.07 "HgN/A
3:30 pm50 °FPartly sunny.9 mph50%30.07 "HgN/A
3:00 pm52 °FPartly sunny.12 mph47%30.07 "HgN/A
2:30 pm52 °FPartly sunny.18 mph44%30.04 "HgN/A
2:00 pm54 °FScattered clouds.17 mph44%30.04 "HgN/A
1:30 pm52 °FScattered clouds.18 mph50%30.04 "HgN/A
1:00 pm50 °FScattered clouds.15 mph50%30.04 "HgN/A
12:30 pm50 °FPassing clouds.16 mph54%30.04 "HgN/A
12:00 pm50 °FPassing clouds.17 mph54%30.04 "HgN/A
11:30 am48 °FPassing clouds.13 mph58%30.04 "HgN/A
11:00 am48 °FPassing clouds.17 mph58%30.04 "HgN/A
10:30 am48 °FPassing clouds.14 mph58%30.04 "HgN/A
10:00 am46 °FPassing clouds.10 mph62%30.04 "HgN/A
9:30 am45 °FPassing clouds.5 mph76%30.01 "HgN/A
9:00 am43 °FPassing clouds.3 mph87%30.01 "HgN/A
8:30 am41 °FPassing clouds.6 mph87%29.98 "HgN/A
8:00 am41 °FScattered clouds.2 mph87%29.98 "HgN/A
7:30 am43 °FPassing clouds.5 mph81%29.95 "HgN/A
7:00 am43 °FPassing clouds.6 mph87%29.95 "HgN/A
6:30 am43 °FPassing clouds.1 mph81%29.95 "HgN/A
6:00 am43 °FOvercast.5 mph87%29.95 "HgN/A
5:30 am41 °FPassing clouds.5 mph93%29.95 "HgN/A
5:00 am43 °FPassing clouds.3 mph81%29.95 "HgN/A
4:30 am43 °FPassing clouds.3 mph81%29.92 "HgN/A
4:00 am45 °FMostly cloudy.2 mph81%29.92 "HgN/A
3:30 am45 °FMostly cloudy.6 mph81%29.95 "HgN/A
3:00 am45 °FOvercast.6 mph81%29.95 "HgN/A
2:30 am45 °FPassing clouds.8 mph81%29.95 "HgN/A
2:00 am45 °FOvercast.8 mph81%29.95 "HgN/A
Weather by CustomWeather, © 2024

See weather overview